SBOSBO UIP / LFRQ
Speedbird OnlineSpeedbird Online UIP / LFRQ

Quimper-Cornouaille Airport
22:31 12°C

Location Quimper, France
Latitude: 47.974998474121094
Longitude: -4.167789936065674
Web Wikipedia
Altitude 91 Meter / 297 Feet
Distance 499 KM / 310 Miles
from London.
Time Zone UTC +2 hours (Europe/Paris)
Codes IATA: UIP
ICAO: LFRQ
Currency £1 equals EUR 1.12
Runways
RunwayLength (m)Surface
04810Asphalt
092150Asphalt
22810Asphalt
272150Asphalt
Radio
TypeDescriptionFrequency
APPIROISE APP119.575
TWRQUIMPER TWR118.625
Live ATC
METAR LFRQ 242000Z AUTO 35008KT CAVOK 12/10 Q1019 NOSIG
TAF TAF LFRQ 241700Z 2418/2518 36010KT 9999 SCT030 PROB30 TEMPO 2418/2420 4000 SHRA BKN020CB PROB30 TEMPO 2503/2508 4000 SHRA BKN010 BKN020TCU PROB30 TEMPO 2508/2514 4000 SHRA BKN020TCU
Weather As Of 24 Sep 2022 22:31
Description Clear sky
Wind 15 km/h from North (350°)
Cloud Cover 0%
Precipitation Rain: none, Snow: none
Sunrise 08:05
Sunset 20:11
Rotations During the last 90 days there were
40 flights from LCY
40 flights to LCY


© 2017-2022 Speedbird Online